Wolf 59 — CGBP — position and weather

sailwx.info

Track history (hours):
 
Tides and Currents Weather Stations Pressure Air Temp Water Temp Dewpoint Dewpoint Depression Visibility Wind Speed Wind Dir Waves Ship Positions

Wolf 59

Last reported at 2015-Jul-03 21:33 UTC. Time now 2015-Jul-03 22:07 UTC.
Position N 49°17' W 123°07'.

Length 33 m; draft 2.6 m.

Type: Military. MMSI: 316011515.

Date/timePositionNaut miles runAvg speedWind from/ knotsBaromVisibWave heightAir tempDewpointWater temp
2015-Jul-03 21:33N 49°17' W 123°07'0 0.0
2015-Jul-03 20:33N 49°17' W 123°07'0 0.0
2015-Jul-03 19:33N 49°17' W 123°07'3 3.1
2015-Jul-03 18:34N 49°19' W 123°11'1919.1
2015-Jul-03 17:33N 49°14' W 123°40'1111.2
2015-Jul-03 16:33N 49°10' W 123°56'0 0.0
2015-Jul-03 15:33N 49°10' W 123°56'3 2.6
2015-Jul-03 14:32N 49°12' W 123°53'6 6.0
2015-Jul-03 13:29N 49°12' W 123°43'7 7.4
2015-Jul-03 12:32N 49°09' W 123°33'8 8.2
2015-Jul-03 11:32N 49°05' W 123°22'9 8.6
2015-Jul-03 10:32N 48°59' W 123°12'8 7.8
2015-Jul-03 09:32N 48°54' W 123°03'7 6.8
2015-Jul-03 08:32N 48°48' W 122°60'8 7.8
2015-Jul-03 07:32N 48°43' W 123°09'6 6.3
2015-Jul-03 06:32N 48°38' W 123°14'1111.2
2015-Jul-03 05:32N 48°27' W 123°10'5 5.0
2015-Jul-03 04:32N 48°23' W 123°15'9 8.0
2015-Jul-03 03:23N 48°21' W 123°28'5 5.5
2015-Jul-03 02:32N 48°25' W 123°27'1 1.0
2015-Jul-03 01:33N 48°26' W 123°26'0 0.0
2015-Jul-03 00:30N 48°26' W 123°26'0 0.0
2015-Jul-02 23:18N 48°26' W 123°26'0 0.0
2015-Jul-02 22:33N 48°26' W 123°26'4 3.7
2015-Jul-02 21:34N 48°24' W 123°22'5 5.3
2015-Jul-02 20:33N 48°24' W 123°14'1111.2
2015-Jul-02 19:33N 48°35' W 123°14'1010.4
2015-Jul-02 18:33N 48°45' W 123°07'8 8.2
2015-Jul-02 17:33N 48°53' W 123°08'1313.0
2015-Jul-02 16:33N 49°02' W 123°23'8 8.3
2015-Jul-02 15:33N 49°08' W 123°14'2 2.2
2015-Jul-02 14:33N 49°07' W 123°11'  
2015-Jun-29 17:14N 49°07' W 123°11'1 1.8
2015-Jun-29 16:33N 49°08' W 123°12'3 2.7
2015-Jun-29 15:33N 49°07' W 123°16'2 2.3
2015-Jun-29 14:33N 49°07' W 123°20'3 2.8
2015-Jun-29 13:33N 49°05' W 123°21'1312.9
2015-Jun-29 12:33N 48°56' W 123°07'1110.6
2015-Jun-29 11:33N 48°46' W 123°03'1111.1
2015-Jun-29 10:33N 48°45' W 123°20'1 1.3
2015-Jun-29 09:33N 48°45' W 123°18'8 8.1
2015-Jun-29 08:33N 48°45' W 123°05'4 3.8
2015-Jun-29 07:33N 48°47' W 123°00'10 9.9
2015-Jun-29 06:33N 48°42' W 123°13'8 8.5
2015-Jun-29 05:33N 48°34' W 123°12'9 9.1
2015-Jun-29 04:34N 48°25' W 123°10'9 9.0
2015-Jun-29 03:33N 48°22' W 123°23'4 4.3
2015-Jun-29 02:33N 48°26' W 123°26'3 2.3
2015-Jun-29 01:26N 48°24' W 123°28'0 0.0
2015-Jun-29 00:15N 48°24' W 123°28'1 1.4
2015-Jun-28 23:33N 48°25' W 123°27'2 1.6
2015-Jun-28 22:33N 48°26' W 123°27'0 0.1
2015-Jun-28 21:33N 48°26' W 123°27'2 1.8
2015-Jun-28 20:33N 48°25' W 123°25'7 6.8
2015-Jun-28 19:34N 48°24' W 123°15'9 8.9
2015-Jun-28 18:33N 48°33' W 123°13'9 9.0
2015-Jun-28 17:34N 48°41' W 123°17'6 5.6
2015-Jun-28 16:33N 48°45' W 123°24'1 1.3
2015-Jun-28 15:33N 48°44' W 123°25'1 1.4
2015-Jun-28 14:33N 48°44' W 123°23'1313.0
2015-Jun-28 13:33N 48°46' W 123°03'8 8.5
2015-Jun-28 12:34N 48°54' W 123°09'1313.4
2015-Jun-28 11:33N 49°03' W 123°23'1111.0
2015-Jun-28 10:33N 49°10' W 123°36'1312.5
2015-Jun-28 09:32N 49°18' W 123°52'6 5.8
2015-Jun-28 08:33N 49°19' W 123°44'1110.9
2015-Jun-28 07:34N 49°12' W 123°31'1111.3
2015-Jun-28 06:34N 49°04' W 123°19'1110.8
2015-Jun-28 05:34N 48°56' W 123°08'1010.1
2015-Jun-28 04:33N 48°48' W 122°59'1010.0
2015-Jun-28 03:34N 48°42' W 123°12'9 9.0
2015-Jun-28 02:33N 48°33' W 123°12'9 8.9
2015-Jun-28 01:33N 48°24' W 123°11'1110.9
2015-Jun-28 00:33N 48°22' W 123°27'4 4.3
2015-Jun-27 23:33N 48°26' W 123°26'3 2.7
2015-Jun-27 22:31N 48°23' W 123°27'2 1.5
2015-Jun-27 21:16N 48°22' W 123°28'0 0.5
2015-Jun-27 20:31N 48°22' W 123°28'1 0.6
2015-Jun-27 19:28N 48°22' W 123°27'5 0.1
2015-Jun-25 18:33N 48°26' W 123°27'0 0.0
2015-Jun-25 17:33N 48°26' W 123°27'0 0.2
2015-Jun-25 16:33N 48°26' W 123°27'0 0.0
2015-Jun-25 15:33N 48°26' W 123°27'4 4.4
2015-Jun-25 14:33N 48°22' W 123°27'1 0.6
2015-Jun-25 13:33N 48°23' W 123°27'0 0.2
2015-Jun-25 12:33N 48°23' W 123°28'1 1.4
2015-Jun-25 11:33N 48°23' W 123°25'1010.5
2015-Jun-25 10:33N 48°29' W 123°12'1313.2
2015-Jun-25 09:34N 48°42' W 123°16'1212.4
2015-Jun-25 08:33N 48°48' W 123°00'1211.5
2015-Jun-25 07:33N 48°56' W 123°12'1211.8
2015-Jun-25 06:33N 49°05' W 123°25'1211.8
2015-Jun-25 05:33N 49°16' W 123°28'1010.1
2015-Jun-25 04:33N 49°26' W 123°24'3 2.6
2015-Jun-25 03:33N 49°28' W 123°21'0 0.0
2015-Jun-25 02:33N 49°28' W 123°21'0 0.0
2015-Jun-25 01:33N 49°28' W 123°21'2 2.4
2015-Jun-25 00:33N 49°27' W 123°24'10 9.7
2015-Jun-24 23:34N 49°17' W 123°27'1817.8
2015-Jun-24 22:33N 48°60' W 123°23'1110.8
2015-Jun-24 21:31N 48°49' W 123°17'3 3.0
2015-Jun-24 20:33N 48°47' W 123°14'1 0.9
2015-Jun-24 19:33N 48°48' W 123°14'1 0.6
2015-Jun-24 18:33N 48°48' W 123°14'0 0.4
2015-Jun-24 17:33N 48°48' W 123°15'2 2.1
2015-Jun-24 16:33N 48°49' W 123°18'8 3.7
2015-Jun-24 14:17N 48°51' W 123°30'0 0.0
2015-Jun-24 13:29N 48°51' W 123°30'0 0.0
2015-Jun-24 11:23N 48°51' W 123°30'0 0.0
2015-Jun-24 10:23N 48°51' W 123°30'0 0.0
2015-Jun-24 09:29N 48°51' W 123°30'0 0.0
2015-Jun-24 08:29N 48°51' W 123°30'0 0.0
2015-Jun-24 07:17N 48°51' W 123°30'0 0.0
2015-Jun-24 06:29N 48°51' W 123°30'0 0.0
2015-Jun-24 05:29N 48°51' W 123°30'0 0.0
2015-Jun-24 04:17N 48°51' W 123°30'0 0.0
2015-Jun-24 03:28N 48°51' W 123°30'0 0.0
2015-Jun-24 02:22N 48°51' W 123°30'0 0.0
2015-Jun-24 01:31N 48°51' W 123°30'0 0.0
2015-Jun-24 00:13N 48°51' W 123°30'0 0.0
2015-Jun-23 23:28N 48°51' W 123°30'0 0.0
2015-Jun-23 22:28N 48°51' W 123°30'  
Track history (hours):
 
Tides and Currents Weather Stations Pressure Air Temp Water Temp Dewpoint Dewpoint Depression Visibility Wind Speed Wind Dir Waves Ship Positions

Wolf 59

Last reported at 2015-Jul-03 21:33 UTC. Time now 2015-Jul-03 22:07 UTC.
Position N 49°17' W 123°07'.

Length 33 m; draft 2.6 m.

Type: Military. MMSI: 316011515.

Date/timePositionNaut miles runAvg speedWind from/ knotsBaromVisibWave heightAir tempDewpointWater temp
2015-Jul-03 21:33N 49°17' W 123°07'0 0.0
2015-Jul-03 20:33N 49°17' W 123°07'0 0.0
2015-Jul-03 19:33N 49°17' W 123°07'3 3.1
2015-Jul-03 18:34N 49°19' W 123°11'1919.1
2015-Jul-03 17:33N 49°14' W 123°40'1111.2
2015-Jul-03 16:33N 49°10' W 123°56'0 0.0
2015-Jul-03 15:33N 49°10' W 123°56'3 2.6
2015-Jul-03 14:32N 49°12' W 123°53'6 6.0
2015-Jul-03 13:29N 49°12' W 123°43'7 7.4
2015-Jul-03 12:32N 49°09' W 123°33'8 8.2
2015-Jul-03 11:32N 49°05' W 123°22'9 8.6
2015-Jul-03 10:32N 48°59' W 123°12'8 7.8
2015-Jul-03 09:32N 48°54' W 123°03'7 6.8
2015-Jul-03 08:32N 48°48' W 122°60'8 7.8
2015-Jul-03 07:32N 48°43' W 123°09'6 6.3
2015-Jul-03 06:32N 48°38' W 123°14'1111.2
2015-Jul-03 05:32N 48°27' W 123°10'5 5.0
2015-Jul-03 04:32N 48°23' W 123°15'9 8.0
2015-Jul-03 03:23N 48°21' W 123°28'5 5.5
2015-Jul-03 02:32N 48°25' W 123°27'1 1.0
2015-Jul-03 01:33N 48°26' W 123°26'0 0.0
2015-Jul-03 00:30N 48°26' W 123°26'0 0.0
2015-Jul-02 23:18N 48°26' W 123°26'0 0.0
2015-Jul-02 22:33N 48°26' W 123°26'4 3.7
2015-Jul-02 21:34N 48°24' W 123°22'5 5.3
2015-Jul-02 20:33N 48°24' W 123°14'1111.2
2015-Jul-02 19:33N 48°35' W 123°14'1010.4
2015-Jul-02 18:33N 48°45' W 123°07'8 8.2
2015-Jul-02 17:33N 48°53' W 123°08'1313.0
2015-Jul-02 16:33N 49°02' W 123°23'8 8.3
2015-Jul-02 15:33N 49°08' W 123°14'2 2.2
2015-Jul-02 14:33N 49°07' W 123°11'  
2015-Jun-29 17:14N 49°07' W 123°11'1 1.8
2015-Jun-29 16:33N 49°08' W 123°12'3 2.7
2015-Jun-29 15:33N 49°07' W 123°16'2 2.3
2015-Jun-29 14:33N 49°07' W 123°20'3 2.8
2015-Jun-29 13:33N 49°05' W 123°21'1312.9
2015-Jun-29 12:33N 48°56' W 123°07'1110.6
2015-Jun-29 11:33N 48°46' W 123°03'1111.1
2015-Jun-29 10:33N 48°45' W 123°20'1 1.3
2015-Jun-29 09:33N 48°45' W 123°18'8 8.1
2015-Jun-29 08:33N 48°45' W 123°05'4 3.8
2015-Jun-29 07:33N 48°47' W 123°00'10 9.9
2015-Jun-29 06:33N 48°42' W 123°13'8 8.5
2015-Jun-29 05:33N 48°34' W 123°12'9 9.1
2015-Jun-29 04:34N 48°25' W 123°10'9 9.0
2015-Jun-29 03:33N 48°22' W 123°23'4 4.3
2015-Jun-29 02:33N 48°26' W 123°26'3 2.3
2015-Jun-29 01:26N 48°24' W 123°28'0 0.0
2015-Jun-29 00:15N 48°24' W 123°28'1 1.4
2015-Jun-28 23:33N 48°25' W 123°27'2 1.6
2015-Jun-28 22:33N 48°26' W 123°27'0 0.1
2015-Jun-28 21:33N 48°26' W 123°27'2 1.8
2015-Jun-28 20:33N 48°25' W 123°25'7 6.8
2015-Jun-28 19:34N 48°24' W 123°15'9 8.9
2015-Jun-28 18:33N 48°33' W 123°13'9 9.0
2015-Jun-28 17:34N 48°41' W 123°17'6 5.6
2015-Jun-28 16:33N 48°45' W 123°24'1 1.3
2015-Jun-28 15:33N 48°44' W 123°25'1 1.4
2015-Jun-28 14:33N 48°44' W 123°23'1313.0
2015-Jun-28 13:33N 48°46' W 123°03'8 8.5
2015-Jun-28 12:34N 48°54' W 123°09'1313.4
2015-Jun-28 11:33N 49°03' W 123°23'1111.0
2015-Jun-28 10:33N 49°10' W 123°36'1312.5
2015-Jun-28 09:32N 49°18' W 123°52'6 5.8
2015-Jun-28 08:33N 49°19' W 123°44'1110.9
2015-Jun-28 07:34N 49°12' W 123°31'1111.3
2015-Jun-28 06:34N 49°04' W 123°19'1110.8
2015-Jun-28 05:34N 48°56' W 123°08'1010.1
2015-Jun-28 04:33N 48°48' W 122°59'1010.0
2015-Jun-28 03:34N 48°42' W 123°12'9 9.0
2015-Jun-28 02:33N 48°33' W 123°12'9 8.9
2015-Jun-28 01:33N 48°24' W 123°11'1110.9
2015-Jun-28 00:33N 48°22' W 123°27'4 4.3
2015-Jun-27 23:33N 48°26' W 123°26'3 2.7
2015-Jun-27 22:31N 48°23' W 123°27'2 1.5
2015-Jun-27 21:16N 48°22' W 123°28'0 0.5
2015-Jun-27 20:31N 48°22' W 123°28'1 0.6
2015-Jun-27 19:28N 48°22' W 123°27'5 0.1
2015-Jun-25 18:33N 48°26' W 123°27'0 0.0
2015-Jun-25 17:33N 48°26' W 123°27'0 0.2
2015-Jun-25 16:33N 48°26' W 123°27'0 0.0
2015-Jun-25 15:33N 48°26' W 123°27'4 4.4
2015-Jun-25 14:33N 48°22' W 123°27'1 0.6
2015-Jun-25 13:33N 48°23' W 123°27'0 0.2
2015-Jun-25 12:33N 48°23' W 123°28'1 1.4
2015-Jun-25 11:33N 48°23' W 123°25'1010.5
2015-Jun-25 10:33N 48°29' W 123°12'1313.2
2015-Jun-25 09:34N 48°42' W 123°16'1212.4
2015-Jun-25 08:33N 48°48' W 123°00'1211.5
2015-Jun-25 07:33N 48°56' W 123°12'1211.8
2015-Jun-25 06:33N 49°05' W 123°25'1211.8
2015-Jun-25 05:33N 49°16' W 123°28'1010.1
2015-Jun-25 04:33N 49°26' W 123°24'3 2.6
2015-Jun-25 03:33N 49°28' W 123°21'0 0.0
2015-Jun-25 02:33N 49°28' W 123°21'0 0.0
2015-Jun-25 01:33N 49°28' W 123°21'2 2.4
2015-Jun-25 00:33N 49°27' W 123°24'10 9.7
2015-Jun-24 23:34N 49°17' W 123°27'1817.8
2015-Jun-24 22:33N 48°60' W 123°23'1110.8
2015-Jun-24 21:31N 48°49' W 123°17'3 3.0
2015-Jun-24 20:33N 48°47' W 123°14'1 0.9
2015-Jun-24 19:33N 48°48' W 123°14'1 0.6
2015-Jun-24 18:33N 48°48' W 123°14'0 0.4
2015-Jun-24 17:33N 48°48' W 123°15'2 2.1
2015-Jun-24 16:33N 48°49' W 123°18'8 3.7
2015-Jun-24 14:17N 48°51' W 123°30'0 0.0
2015-Jun-24 13:29N 48°51' W 123°30'0 0.0
2015-Jun-24 11:23N 48°51' W 123°30'0 0.0
2015-Jun-24 10:23N 48°51' W 123°30'0 0.0
2015-Jun-24 09:29N 48°51' W 123°30'0 0.0
2015-Jun-24 08:29N 48°51' W 123°30'0 0.0
2015-Jun-24 07:17N 48°51' W 123°30'0 0.0
2015-Jun-24 06:29N 48°51' W 123°30'0 0.0
2015-Jun-24 05:29N 48°51' W 123°30'0 0.0
2015-Jun-24 04:17N 48°51' W 123°30'0 0.0
2015-Jun-24 03:28N 48°51' W 123°30'0 0.0
2015-Jun-24 02:22N 48°51' W 123°30'0 0.0
2015-Jun-24 01:31N 48°51' W 123°30'0 0.0
2015-Jun-24 00:13N 48°51' W 123°30'0 0.0
2015-Jun-23 23:28N 48°51' W 123°30'0 0.0
2015-Jun-23 22:28N 48°51' W 123°30'  

Dump ship's entire track history